Sault Sainte Marie, MI

6:44 AM EST on February 13, 2016 (GMT -0500)
Sault Ste Marie Municipal / Sanderson Field | | Change Station
CLOSE
Current Station
Airport
Location: Sault Ste Marie,
Elevation: 715 ft
Nearby Weather Stations
Active Advisory: Wind Chill Advisory Active Notice: Local Storm Report

Elev 715 ft 46.48 °N, 84.36 °W | Updated 49 minutes ago

Scattered Clouds
Scattered Clouds
-15 °F
Feels Like -25 °F
N
4
Wind Variable Wind from NNW

Today
High -- | Low -- °F
--% Chance of Precip.
Yesterday
High -- | Low -- °F
Precip. -- in
Pressure 30.44 in
Visibility 10.0 miles
Clouds Few 3700 ft
Scattered Clouds 7000 ft
Windchill -25 °F
Dew Point -26 °F
Humidity 58%
Rainfall 0.00 in
Snow Depth Not available.
7:44 AM 5:59 PM
Waxing Crescent, 30% visible
METAR KANJ 131055Z AUTO 33003KT 10SM FEW037 SCT070 M26/M32 A3037 RMK AO2 SLP308 T12611322
Pressure 30.44 in
Visibility 10.0 miles
Clouds Few 3700 ft
Scattered Clouds 7000 ft
Windchill -25 °F
Dew Point -26 °F
Humidity 58%
Rainfall 0.00 in
Snow Depth Not available.
7:44 AM 5:59 PM
Waxing Crescent, 30% visible
METAR KANJ 131055Z AUTO 33003KT 10SM FEW037 SCT070 M26/M32 A3037 RMK AO2 SLP308 T12611322

10-Day Weather Forecast

Almanac

Astronomy

Feb. 13, 2016 Rise Set
Actual Time
Civil Twilight
Nautical Twilight
Astronomical Twilight
Moon
Length of Visible Light
Length of Day
Tomorrow will be .
, % of the Moon is Illuminated

Today's Extremes

State Highs State Lows

Community

WunderPhotos

Upload Photos

1,892,541 photos uploaded!

WunderBlog® & News

Nearby

Air Quality

  Air Quality AQ Index Pollutant
Not available.

Snow Depth

Station Depth Elevation

Earthquake Activity

City Distance Mag. Time & Date
Minimum magnitude displayed is 2.5.

Coastal Water Temperatures

Place Temperature

Stations

Nearby Weather Stations

Station Location Temp. Windchill Dew Point Humidity Wind Precip. Elev Updated Type
                   

Watches & Warnings

Wind Chill Advisory
Issued: 3:53 AM EST Feb. 13, 2016 – National Weather Service

... Wind Chill Advisory in effect until noon EST today...
... Winter Weather Advisory is cancelled...

The National Weather Service in Gaylord has issued a Wind Chill
Advisory... which is in effect until noon EST today. The Winter
Weather Advisory has been cancelled.

* Wind chill values of 20 to 30 below zero will be felt into the
morning.

* It only takes 20 to 30 minutes of unprotected exposure to these
temperatures to get frostbite.

Precautionary/preparedness actions...

A Wind Chill Advisory means that very cold air and strong winds
will combine to generate low wind chills. This will result in
frost bite and lead to hypothermia if precautions are not taken.
If you must venture outdoors... make sure you wear a hat and
gloves.